createdAt,value
2022-10-05T00:00:39.400Z,3.67
2022-10-05T00:03:11.721Z,3.83
2022-10-05T00:05:38.948Z,3.57
2022-10-05T00:08:15.447Z,4.00
2022-10-05T00:10:43.469Z,4.07
2022-10-05T00:13:23.468Z,3.73
2022-10-05T00:15:52.922Z,3.87
2022-10-05T00:18:21.551Z,3.30
2022-10-05T00:20:49.802Z,3.43
2022-10-05T00:23:24.405Z,3.67
2022-10-05T00:25:51.547Z,3.63
2022-10-05T00:28:30.487Z,3.70
2022-10-05T00:30:58.782Z,3.90
2022-10-05T00:33:27.385Z,3.67
2022-10-05T00:35:55.511Z,4.00
2022-10-05T00:38:22.497Z,4.30
2022-10-05T00:41:03.220Z,3.90
2022-10-05T00:43:53.232Z,4.30
2022-10-05T00:46:29.431Z,4.23
2022-10-05T00:49:08.513Z,4.07
2022-10-05T00:51:41.312Z,3.60
2022-10-05T00:54:18.132Z,3.70
2022-10-05T00:57:04.027Z,4.17
2022-10-05T00:59:58.184Z,3.97
2022-10-05T01:02:40.200Z,4.07
2022-10-05T01:05:22.587Z,3.57
2022-10-05T01:08:01.587Z,3.80
2022-10-05T01:10:45.287Z,4.27
2022-10-05T01:13:40.893Z,3.57
2022-10-05T01:16:24.068Z,3.60
2022-10-05T01:19:11.828Z,3.50
2022-10-05T01:22:11.195Z,3.13
2022-10-05T01:24:58.634Z,3.33
2022-10-05T01:28:03.752Z,3.40
2022-10-05T01:30:58.181Z,3.47
2022-10-05T01:33:42.711Z,3.40
2022-10-05T01:36:20.085Z,3.60
2022-10-05T01:39:01.536Z,3.20
2022-10-05T01:41:28.301Z,3.40
2022-10-05T01:44:20.102Z,3.30
2022-10-05T01:46:49.898Z,3.73
2022-10-05T01:49:35.430Z,3.47
2022-10-05T01:52:28.529Z,3.37
2022-10-05T01:55:16.475Z,3.17
2022-10-05T01:58:05.122Z,3.27
2022-10-05T02:00:40.964Z,3.57
2022-10-05T02:03:26.734Z,3.13
2022-10-05T02:06:00.205Z,3.07
2022-10-05T02:08:53.639Z,3.30
2022-10-05T02:11:20.658Z,3.23
2022-10-05T02:13:51.946Z,3.50
2022-10-05T02:16:33.829Z,3.83
2022-10-05T02:19:09.352Z,3.93
2022-10-05T02:21:37.091Z,3.50
2022-10-05T02:24:11.805Z,4.07
2022-10-05T02:26:39.813Z,3.30
2022-10-05T02:29:11.583Z,3.30
2022-10-05T02:31:58.745Z,4.00
2022-10-05T02:34:32.119Z,3.30
2022-10-05T02:37:04.831Z,4.23
2022-10-05T02:39:46.949Z,3.80
2022-10-05T02:42:41.301Z,3.83
2022-10-05T02:45:26.314Z,4.73
2022-10-05T02:47:59.107Z,4.00
2022-10-05T02:50:45.578Z,3.73
2022-10-05T02:53:34.003Z,3.70
2022-10-05T02:56:03.664Z,3.60
2022-10-05T02:58:41.282Z,3.47
2022-10-05T03:01:11.035Z,3.50
2022-10-05T03:03:43.106Z,3.57
2022-10-05T03:06:35.191Z,3.43
2022-10-05T03:09:05.382Z,3.23
2022-10-05T03:11:35.272Z,3.57
2022-10-05T03:14:27.121Z,3.47
2022-10-05T03:17:20.300Z,3.80
2022-10-05T03:20:04.258Z,4.10
2022-10-05T03:22:33.885Z,3.37
2022-10-05T03:25:31.505Z,3.80
2022-10-05T03:28:26.757Z,6.43
2022-10-05T03:31:15.453Z,5.80
2022-10-05T03:34:04.375Z,4.70
2022-10-05T03:37:28.066Z,3.83
2022-10-05T03:40:22.572Z,4.73
2022-10-05T03:43:06.045Z,4.70
2022-10-05T03:45:54.349Z,4.60
2022-10-05T03:48:32.558Z,4.40
2022-10-05T03:51:13.552Z,4.50
2022-10-05T03:53:49.949Z,4.53
2022-10-05T03:56:20.127Z,4.20
2022-10-05T03:59:17.054Z,3.97
2022-10-05T04:01:52.460Z,4.30
2022-10-05T04:04:33.936Z,4.20
2022-10-05T04:07:02.291Z,4.20
2022-10-05T04:09:36.937Z,4.17
2022-10-05T04:12:10.078Z,3.93
2022-10-05T04:14:43.012Z,3.80
2022-10-05T04:17:17.580Z,4.50
2022-10-05T04:20:07.833Z,4.30
2022-10-05T04:22:40.831Z,4.10
2022-10-05T04:25:26.601Z,4.57
2022-10-05T04:28:01.047Z,4.67
2022-10-05T04:30:29.196Z,4.70
2022-10-05T04:33:00.569Z,4.60
2022-10-05T04:35:33.318Z,4.63
2022-10-05T04:38:10.490Z,4.33
2022-10-05T04:41:04.943Z,4.00
2022-10-05T04:43:49.487Z,4.37
2022-10-05T04:46:39.590Z,4.03
2022-10-05T04:49:32.027Z,5.60
2022-10-05T04:52:07.780Z,6.13
2022-10-05T04:54:43.590Z,6.97
2022-10-05T04:57:30.420Z,6.40
2022-10-05T05:00:26.052Z,6.00
2022-10-05T05:03:04.147Z,7.00
2022-10-05T05:06:16.802Z,7.03
2022-10-05T05:09:20.421Z,6.33
2022-10-05T05:12:22.420Z,5.83
2022-10-05T05:15:47.384Z,5.70
2022-10-05T05:19:07.922Z,6.70
2022-10-05T05:21:53.993Z,7.43
2022-10-05T05:24:39.980Z,6.63
2022-10-05T05:27:28.457Z,6.70
2022-10-05T05:30:37.323Z,7.77
2022-10-05T05:33:40.039Z,6.80
2022-10-05T05:36:45.127Z,6.83
2022-10-05T05:39:34.569Z,7.40
2022-10-05T05:42:17.946Z,7.43
2022-10-05T05:45:02.999Z,7.27
2022-10-05T05:51:14.108Z,7.13
2022-10-05T05:53:45.675Z,6.80
2022-10-05T05:56:45.338Z,6.23
2022-10-05T05:59:36.636Z,6.13
2022-10-05T06:02:19.719Z,5.70
2022-10-05T06:05:35.682Z,6.00
2022-10-05T06:08:23.712Z,5.37
2022-10-05T06:11:37.796Z,6.03
2022-10-05T06:14:37.882Z,5.87
2022-10-05T06:17:18.394Z,5.73
2022-10-05T06:20:04.945Z,7.07
2022-10-05T06:22:53.289Z,6.57
2022-10-05T06:25:51.292Z,5.33
2022-10-05T06:28:26.096Z,5.77
2022-10-05T06:31:47.160Z,5.37
2022-10-05T06:34:27.365Z,5.43
2022-10-05T06:37:06.658Z,5.57
2022-10-05T06:40:01.692Z,5.27
2022-10-05T06:42:37.969Z,5.33
2022-10-05T06:45:48.826Z,4.83
2022-10-05T06:48:40.954Z,4.87
2022-10-05T06:51:42.566Z,4.53
2022-10-05T06:54:36.562Z,3.90
2022-10-05T06:57:25.770Z,4.67
2022-10-05T07:00:35.279Z,4.33
2022-10-05T07:03:44.201Z,4.70
2022-10-05T07:06:41.120Z,4.97
2022-10-05T07:09:26.669Z,4.67
2022-10-05T07:12:53.686Z,4.73
2022-10-05T07:15:56.980Z,4.70
2022-10-05T07:18:43.023Z,5.20
2022-10-05T07:21:28.959Z,4.70
2022-10-05T07:27:57.020Z,4.40
2022-10-05T07:30:30.522Z,4.10
2022-10-05T07:33:43.497Z,4.00
2022-10-05T07:36:58.560Z,4.70
2022-10-05T07:40:00.591Z,4.20
2022-10-05T07:43:00.754Z,4.50
2022-10-05T07:45:55.978Z,4.32
2022-10-05T07:49:08.666Z,4.65
2022-10-05T07:51:52.302Z,4.55
2022-10-05T07:54:34.103Z,4.00
2022-10-05T07:57:29.513Z,4.10
2022-10-05T08:00:18.369Z,4.50
2022-10-05T08:02:54.826Z,4.28
2022-10-05T08:05:54.210Z,5.03
2022-10-05T08:09:03.071Z,4.25
2022-10-05T08:12:17.009Z,4.78
2022-10-05T08:15:30.854Z,4.78
2022-10-05T08:18:12.134Z,4.47
2022-10-05T08:20:53.619Z,4.85
2022-10-05T08:23:56.456Z,4.88
2022-10-05T08:26:53.774Z,4.95
2022-10-05T08:29:49.813Z,4.78
2022-10-05T08:32:51.355Z,4.13
2022-10-05T08:35:44.967Z,4.60
2022-10-05T08:38:32.845Z,4.40
2022-10-05T08:42:21.928Z,4.93
2022-10-05T08:45:37.803Z,5.07
2022-10-05T08:48:27.874Z,4.35
2022-10-05T08:51:41.909Z,4.38
2022-10-05T08:54:51.389Z,4.95
2022-10-05T08:57:49.267Z,4.25
2022-10-05T09:00:28.955Z,4.07
2022-10-05T09:03:15.000Z,4.85
2022-10-05T09:06:03.238Z,4.47
2022-10-05T09:09:40.030Z,4.63
2022-10-05T09:12:46.673Z,4.32
2022-10-05T09:15:47.412Z,4.63
2022-10-05T09:18:38.594Z,4.47
2022-10-05T09:21:45.261Z,4.50
2022-10-05T09:24:28.600Z,4.57
2022-10-05T09:27:22.780Z,4.32
2022-10-05T09:30:35.030Z,4.30
2022-10-05T09:33:44.177Z,4.13
2022-10-05T09:36:56.316Z,4.25
2022-10-05T09:39:55.814Z,3.80
2022-10-05T09:43:10.435Z,3.70
2022-10-05T09:45:57.664Z,4.38
2022-10-05T09:48:53.633Z,4.13
2022-10-05T09:52:06.152Z,4.20
2022-10-05T09:55:12.367Z,3.55
2022-10-05T09:58:24.103Z,3.58
2022-10-05T10:01:15.963Z,3.80
2022-10-05T10:04:07.255Z,3.53
2022-10-05T10:06:47.768Z,3.75
2022-10-05T10:09:57.976Z,3.85
2022-10-05T10:13:15.611Z,4.00
2022-10-05T10:16:11.267Z,3.67
2022-10-05T10:19:04.953Z,3.65
2022-10-05T10:22:04.105Z,4.13
2022-10-05T10:25:00.285Z,4.80
2022-10-05T10:27:52.698Z,3.75
2022-10-05T10:30:50.369Z,4.18
2022-10-05T10:34:09.823Z,3.95
2022-10-05T10:37:25.939Z,4.10
2022-10-05T10:40:22.051Z,3.60
2022-10-05T10:43:12.545Z,3.60
2022-10-05T10:46:12.819Z,4.43
2022-10-05T10:49:21.678Z,4.72
2022-10-05T10:52:42.074Z,3.95
2022-10-05T10:55:43.308Z,3.58
2022-10-05T10:58:44.075Z,4.30
2022-10-05T11:01:44.359Z,3.58
2022-10-05T11:04:43.359Z,3.67
2022-10-05T11:08:01.263Z,3.97
2022-10-05T11:11:19.462Z,3.38
2022-10-05T11:14:14.363Z,3.60
2022-10-05T11:17:21.755Z,2.78
2022-10-05T11:20:18.563Z,3.35
2022-10-05T11:23:03.021Z,3.60
2022-10-05T11:25:47.195Z,3.45
2022-10-05T11:28:38.614Z,3.50
2022-10-05T11:31:49.386Z,3.28
2022-10-05T11:34:41.745Z,3.35
2022-10-05T11:37:27.712Z,3.17
2022-10-05T11:40:51.311Z,2.75
2022-10-05T11:43:58.304Z,2.90
2022-10-05T11:46:45.030Z,3.00
2022-10-05T11:50:25.869Z,2.90
2022-10-05T11:53:05.931Z,2.58
2022-10-05T11:56:16.979Z,2.20
2022-10-05T11:59:25.478Z,2.60
2022-10-05T12:02:33.026Z,2.38
2022-10-05T12:05:07.445Z,2.38
2022-10-05T12:08:02.093Z,2.85
2022-10-05T12:10:47.485Z,2.00
2022-10-05T12:13:35.603Z,2.55
2022-10-05T12:16:41.102Z,2.35
2022-10-05T12:19:30.052Z,2.35
2022-10-05T12:22:20.653Z,2.63
2022-10-05T12:25:26.093Z,2.45
2022-10-05T12:28:13.324Z,2.58
2022-10-05T12:31:33.467Z,2.55
2022-10-05T12:34:39.483Z,2.30
2022-10-05T12:37:32.934Z,2.40
2022-10-05T12:40:09.299Z,2.38
2022-10-05T12:43:14.388Z,2.20
2022-10-05T12:46:14.525Z,2.35
2022-10-05T12:48:57.984Z,2.20
2022-10-05T12:51:31.963Z,2.08
2022-10-05T12:54:50.376Z,2.55
2022-10-05T12:57:30.147Z,2.30
2022-10-05T13:00:15.943Z,2.35
2022-10-05T13:06:53.670Z,2.40
2022-10-05T13:09:37.421Z,2.63
2022-10-05T13:12:22.742Z,2.58
2022-10-05T13:15:10.800Z,2.47
2022-10-05T13:18:09.974Z,2.40
2022-10-05T13:21:13.149Z,2.30
2022-10-05T13:24:01.686Z,2.92
2022-10-05T13:26:54.285Z,2.85
2022-10-05T13:30:00.237Z,2.60
2022-10-05T13:36:22.808Z,2.80
2022-10-05T13:39:10.759Z,2.70
2022-10-05T13:42:25.601Z,2.60
2022-10-05T13:45:19.139Z,2.35
2022-10-05T13:48:12.000Z,2.25
2022-10-05T13:51:17.208Z,2.20
2022-10-05T13:54:11.836Z,2.17
2022-10-05T13:56:51.756Z,2.08
2022-10-05T13:59:46.534Z,1.90
2022-10-05T14:02:28.152Z,2.25
2022-10-05T14:05:05.676Z,1.90
2022-10-05T14:07:50.643Z,2.75
2022-10-05T14:10:43.801Z,2.58
2022-10-05T14:13:30.200Z,2.30
2022-10-05T14:16:23.257Z,2.28
2022-10-05T14:19:14.471Z,2.38
2022-10-05T14:22:07.683Z,2.03
2022-10-05T14:24:50.062Z,2.30
2022-10-05T14:27:34.959Z,2.33
2022-10-05T14:30:08.562Z,2.60
2022-10-05T14:33:03.662Z,2.00
2022-10-05T14:35:52.683Z,2.10
2022-10-05T14:38:32.836Z,2.22
2022-10-05T14:41:13.724Z,2.22
2022-10-05T14:43:59.341Z,2.40
2022-10-05T14:46:43.383Z,2.13
2022-10-05T14:50:13.518Z,2.00
2022-10-05T14:53:18.300Z,2.55
2022-10-05T14:55:53.290Z,2.15
2022-10-05T14:59:00.094Z,2.22
2022-10-05T15:01:38.706Z,2.50
2022-10-05T15:04:32.928Z,2.20
2022-10-05T15:07:22.546Z,2.08
2022-10-05T15:10:32.256Z,2.95
2022-10-05T15:13:23.398Z,3.20
2022-10-05T15:16:36.170Z,2.75
2022-10-05T15:22:36.244Z,2.38
2022-10-05T15:25:44.525Z,1.88
2022-10-05T15:28:43.743Z,2.30
2022-10-05T15:31:24.516Z,2.50
2022-10-05T15:34:08.297Z,2.85
2022-10-05T15:36:58.402Z,2.95
2022-10-05T15:39:28.649Z,3.08
2022-10-05T15:42:22.219Z,3.42
2022-10-05T15:45:33.576Z,3.13
2022-10-05T15:48:41.278Z,3.38
2022-10-05T15:51:24.151Z,3.30
2022-10-05T15:54:27.209Z,3.30
2022-10-05T15:57:10.721Z,4.53
2022-10-05T16:00:18.846Z,3.65
2022-10-05T16:02:56.237Z,4.22
2022-10-05T16:06:07.744Z,3.90
2022-10-05T16:09:22.922Z,6.45
2022-10-05T16:12:19.391Z,6.95
2022-10-05T16:14:54.784Z,12.73
2022-10-05T16:17:39.953Z,11.57
2022-10-05T16:20:58.298Z,9.18
2022-10-05T16:24:08.159Z,7.20
2022-10-05T16:26:45.601Z,6.90
2022-10-05T16:29:26.725Z,5.53
2022-10-05T16:32:25.573Z,5.72
2022-10-05T16:35:03.390Z,4.55
2022-10-05T16:38:21.239Z,4.07
2022-10-05T16:41:28.656Z,7.00
2022-10-05T16:44:23.655Z,6.13
2022-10-05T16:47:45.276Z,6.53
2022-10-05T16:50:13.655Z,6.68
2022-10-05T16:52:53.823Z,5.30
2022-10-05T16:55:49.278Z,4.88
2022-10-05T16:58:51.596Z,4.78
2022-10-05T17:02:05.769Z,4.90
2022-10-05T17:05:22.340Z,4.72
2022-10-05T17:08:45.039Z,4.35
2022-10-05T17:11:48.778Z,4.10
2022-10-05T17:14:37.824Z,4.60
2022-10-05T17:17:32.235Z,4.25
2022-10-05T17:20:19.153Z,4.25
2022-10-05T17:22:59.640Z,4.07
2022-10-05T17:25:56.329Z,4.05
2022-10-05T17:29:11.733Z,4.45
2022-10-05T17:32:11.490Z,4.65
2022-10-05T17:35:00.690Z,5.93
2022-10-05T17:37:30.907Z,5.20
2022-10-05T17:40:28.602Z,6.10
2022-10-05T17:43:32.950Z,6.88
2022-10-05T17:46:06.961Z,6.00
2022-10-05T17:49:12.168Z,5.50
2022-10-05T17:52:01.837Z,6.07
2022-10-05T17:55:22.384Z,5.93
2022-10-05T17:58:23.300Z,5.40
2022-10-05T18:01:01.426Z,4.72
2022-10-05T18:04:01.232Z,7.47
2022-10-05T18:06:54.657Z,9.68
2022-10-05T18:09:32.775Z,10.00
2022-10-05T18:12:03.084Z,10.50
2022-10-05T18:15:29.847Z,11.27
2022-10-05T18:18:41.117Z,9.75
2022-10-05T18:21:21.330Z,9.97
2022-10-05T18:24:19.863Z,9.57
2022-10-05T18:27:11.250Z,9.77
2022-10-05T18:30:19.030Z,9.30
2022-10-05T18:33:21.353Z,8.63
2022-10-05T18:36:15.525Z,7.83
2022-10-05T18:38:58.915Z,8.17
2022-10-05T18:42:10.306Z,7.47
2022-10-05T18:44:57.725Z,7.77
2022-10-05T18:47:57.905Z,6.60
2022-10-05T18:51:04.406Z,7.13
2022-10-05T18:54:16.086Z,6.57
2022-10-05T18:57:09.275Z,10.70
2022-10-05T18:59:54.754Z,12.23
2022-10-05T19:02:52.422Z,10.43
2022-10-05T19:06:09.547Z,10.40
2022-10-05T19:09:17.696Z,9.17
2022-10-05T19:12:15.926Z,9.70
2022-10-05T19:14:49.288Z,10.43
2022-10-05T19:17:56.921Z,9.93
2022-10-05T19:21:04.317Z,11.10
2022-10-05T19:23:50.784Z,10.57
2022-10-05T19:26:42.234Z,10.70
2022-10-05T19:29:31.317Z,12.60
2022-10-05T19:32:22.258Z,11.37
2022-10-05T19:35:10.769Z,11.43
2022-10-05T19:38:27.927Z,12.07
2022-10-05T19:41:41.516Z,11.27
2022-10-05T19:44:39.272Z,12.07
2022-10-05T19:47:30.406Z,11.37
2022-10-05T19:50:12.881Z,10.67
2022-10-05T19:52:54.776Z,9.10
2022-10-05T19:55:35.130Z,7.23
2022-10-05T19:58:28.824Z,7.43
2022-10-05T20:01:07.202Z,7.50
2022-10-05T20:03:41.331Z,7.40
2022-10-05T20:06:25.807Z,6.93
2022-10-05T20:09:06.449Z,7.00
2022-10-05T20:11:53.997Z,9.80
2022-10-05T20:15:03.644Z,7.87
2022-10-05T20:17:49.633Z,6.93
2022-10-05T20:20:47.167Z,6.80
2022-10-05T20:23:38.199Z,7.37
2022-10-05T20:26:30.438Z,7.27
2022-10-05T20:31:52.353Z,7.13
2022-10-05T20:34:29.855Z,8.03
2022-10-05T20:36:59.594Z,7.90
2022-10-05T20:39:39.322Z,8.30
2022-10-05T20:42:17.753Z,7.70
2022-10-05T20:44:56.991Z,7.47
2022-10-05T20:47:33.321Z,9.00
2022-10-05T20:50:40.794Z,9.30
2022-10-05T20:53:15.518Z,8.13
2022-10-05T20:55:48.249Z,8.97
2022-10-05T20:58:25.769Z,9.07
2022-10-05T21:01:30.768Z,9.43
2022-10-05T21:04:04.135Z,9.87
2022-10-05T21:06:45.086Z,9.00
2022-10-05T21:09:30.017Z,9.27
2022-10-05T21:12:03.479Z,10.63
2022-10-05T21:14:39.927Z,10.60
2022-10-05T21:17:25.835Z,10.33
2022-10-05T21:20:02.199Z,9.63
2022-10-05T21:22:37.849Z,11.20
2022-10-05T21:25:15.444Z,10.97
2022-10-05T21:28:00.650Z,10.30
2022-10-05T21:30:41.296Z,9.53
2022-10-05T21:36:10.464Z,9.47
2022-10-05T21:38:45.100Z,8.97
2022-10-05T21:41:15.245Z,8.70
2022-10-05T21:43:45.640Z,9.00
2022-10-05T21:46:55.192Z,9.40
2022-10-05T21:49:30.959Z,8.57
2022-10-05T21:52:02.188Z,9.57
2022-10-05T21:54:36.762Z,9.10
2022-10-05T21:57:17.172Z,9.47
2022-10-05T21:59:55.944Z,8.97
2022-10-05T22:02:31.418Z,9.70
2022-10-05T22:04:58.573Z,8.60
2022-10-05T22:07:41.969Z,8.70
2022-10-05T22:10:19.620Z,8.87
2022-10-05T22:12:56.581Z,8.40
2022-10-05T22:15:40.393Z,8.03
2022-10-05T22:18:26.369Z,8.47
2022-10-05T22:21:06.169Z,8.90
2022-10-05T22:23:51.081Z,7.90
2022-10-05T22:26:35.711Z,7.17
2022-10-05T22:29:16.720Z,7.40
2022-10-05T22:31:51.854Z,7.50
2022-10-05T22:34:32.266Z,5.87
2022-10-05T22:37:17.185Z,5.77
2022-10-05T22:39:44.381Z,6.27
2022-10-05T22:42:35.059Z,6.10
2022-10-05T22:45:13.370Z,6.63
2022-10-05T22:47:42.647Z,7.80
2022-10-05T22:50:09.898Z,6.30
2022-10-05T22:52:45.953Z,6.73
2022-10-05T22:55:25.186Z,7.03
2022-10-05T22:58:11.264Z,7.03
2022-10-05T23:00:58.058Z,6.83
2022-10-05T23:03:40.914Z,6.70
2022-10-05T23:06:19.146Z,6.83
2022-10-05T23:08:49.235Z,7.13
2022-10-05T23:11:26.064Z,6.90
2022-10-05T23:13:59.620Z,6.73
2022-10-05T23:16:36.412Z,7.00
2022-10-05T23:19:08.790Z,7.13
2022-10-05T23:21:42.057Z,6.87
2022-10-05T23:24:20.412Z,6.97
2022-10-05T23:26:55.551Z,7.10
2022-10-05T23:29:39.492Z,7.40
2022-10-05T23:32:11.986Z,6.63
2022-10-05T23:35:08.612Z,6.83
2022-10-05T23:38:09.291Z,6.87
2022-10-05T23:40:45.513Z,6.57
2022-10-05T23:43:18.759Z,5.87
2022-10-05T23:46:01.607Z,6.20
2022-10-05T23:48:34.461Z,6.17
2022-10-05T23:51:03.970Z,5.30
2022-10-05T23:53:33.651Z,6.27
2022-10-05T23:56:08.585Z,6.87
2022-10-05T23:58:37.955Z,7.00
